sensor_id;sensor_type;location;lat;lon;timestamp;P1;durP1;ratioP1;P2;durP2;ratioP2
22543;SDS011;11438;52.044;8.716;2023-03-23T00:00:53;2.85;;;1.63;;
22543;SDS011;11438;52.044;8.716;2023-03-23T00:03:19;2.42;;;1.50;;
22543;SDS011;11438;52.044;8.716;2023-03-23T00:05:46;5.03;;;1.70;;
22543;SDS011;11438;52.044;8.716;2023-03-23T00:08:16;2.55;;;1.30;;
22543;SDS011;11438;52.044;8.716;2023-03-23T00:10:42;3.83;;;1.48;;
22543;SDS011;11438;52.044;8.716;2023-03-23T00:13:08;3.63;;;1.58;;
22543;SDS011;11438;52.044;8.716;2023-03-23T00:15:33;4.30;;;1.90;;
22543;SDS011;11438;52.044;8.716;2023-03-23T00:18:00;3.58;;;1.58;;
22543;SDS011;11438;52.044;8.716;2023-03-23T00:20:30;4.40;;;1.80;;
22543;SDS011;11438;52.044;8.716;2023-03-23T00:23:02;2.28;;;1.35;;
22543;SDS011;11438;52.044;8.716;2023-03-23T00:25:29;4.63;;;1.67;;
22543;SDS011;11438;52.044;8.716;2023-03-23T00:27:54;4.32;;;1.52;;
22543;SDS011;11438;52.044;8.716;2023-03-23T00:30:19;3.03;;;1.42;;
22543;SDS011;11438;52.044;8.716;2023-03-23T00:32:45;3.53;;;1.48;;
22543;SDS011;11438;52.044;8.716;2023-03-23T00:35:10;3.38;;;1.40;;
22543;SDS011;11438;52.044;8.716;2023-03-23T00:37:36;3.38;;;1.38;;
22543;SDS011;11438;52.044;8.716;2023-03-23T00:40:02;2.70;;;1.45;;
22543;SDS011;11438;52.044;8.716;2023-03-23T00:42:33;5.05;;;1.35;;
22543;SDS011;11438;52.044;8.716;2023-03-23T00:45:02;1.88;;;1.40;;
22543;SDS011;11438;52.044;8.716;2023-03-23T00:47:35;2.78;;;1.67;;
22543;SDS011;11438;52.044;8.716;2023-03-23T00:50:03;4.40;;;1.60;;
22543;SDS011;11438;52.044;8.716;2023-03-23T00:52:30;3.35;;;1.40;;
22543;SDS011;11438;52.044;8.716;2023-03-23T00:54:56;2.53;;;1.58;;
22543;SDS011;11438;52.044;8.716;2023-03-23T00:57:21;3.58;;;1.77;;
22543;SDS011;11438;52.044;8.716;2023-03-23T00:59:49;3.20;;;1.40;;
22543;SDS011;11438;52.044;8.716;2023-03-23T01:02:15;4.10;;;1.70;;
22543;SDS011;11438;52.044;8.716;2023-03-23T01:04:41;2.97;;;1.33;;
22543;SDS011;11438;52.044;8.716;2023-03-23T01:07:09;3.00;;;1.63;;
22543;SDS011;11438;52.044;8.716;2023-03-23T01:09:37;3.83;;;1.40;;
22543;SDS011;11438;52.044;8.716;2023-03-23T01:12:04;4.45;;;1.40;;
22543;SDS011;11438;52.044;8.716;2023-03-23T01:14:30;3.58;;;1.33;;
22543;SDS011;11438;52.044;8.716;2023-03-23T01:16:56;3.22;;;1.40;;
22543;SDS011;11438;52.044;8.716;2023-03-23T01:19:22;3.25;;;1.40;;
22543;SDS011;11438;52.044;8.716;2023-03-23T01:21:47;2.22;;;1.35;;
22543;SDS011;11438;52.044;8.716;2023-03-23T01:24:13;3.90;;;1.50;;
22543;SDS011;11438;52.044;8.716;2023-03-23T01:26:38;2.25;;;1.42;;
22543;SDS011;11438;52.044;8.716;2023-03-23T01:29:04;3.97;;;1.40;;
22543;SDS011;11438;52.044;8.716;2023-03-23T01:31:29;3.05;;;1.45;;
22543;SDS011;11438;52.044;8.716;2023-03-23T01:33:55;2.30;;;1.13;;
22543;SDS011;11438;52.044;8.716;2023-03-23T01:36:23;4.07;;;1.40;;
22543;SDS011;11438;52.044;8.716;2023-03-23T01:38:54;2.17;;;1.20;;
22543;SDS011;11438;52.044;8.716;2023-03-23T01:41:20;2.45;;;1.58;;
22543;SDS011;11438;52.044;8.716;2023-03-23T01:46:40;1.92;;;1.20;;
22543;SDS011;11438;52.044;8.716;2023-03-23T01:49:14;2.55;;;1.10;;
22543;SDS011;11438;52.044;8.716;2023-03-23T01:51:48;2.30;;;1.40;;
22543;SDS011;11438;52.044;8.716;2023-03-23T01:54:17;3.22;;;1.35;;
22543;SDS011;11438;52.044;8.716;2023-03-23T01:56:50;1.98;;;1.20;;
22543;SDS011;11438;52.044;8.716;2023-03-23T01:59:29;3.20;;;1.25;;
22543;SDS011;11438;52.044;8.716;2023-03-23T02:01:56;2.83;;;1.20;;
22543;SDS011;11438;52.044;8.716;2023-03-23T02:04:23;3.45;;;1.30;;
22543;SDS011;11438;52.044;8.716;2023-03-23T02:06:50;2.53;;;1.13;;
22543;SDS011;11438;52.044;8.716;2023-03-23T02:09:17;3.38;;;1.40;;
22543;SDS011;11438;52.044;8.716;2023-03-23T02:11:44;1.90;;;1.02;;
22543;SDS011;11438;52.044;8.716;2023-03-23T02:14:10;2.15;;;1.20;;
22543;SDS011;11438;52.044;8.716;2023-03-23T02:19:25;2.30;;;1.10;;
22543;SDS011;11438;52.044;8.716;2023-03-23T02:24:57;1.45;;;0.90;;
22543;SDS011;11438;52.044;8.716;2023-03-23T02:30:39;1.75;;;1.15;;
22543;SDS011;11438;52.044;8.716;2023-03-23T02:33:29;2.17;;;1.35;;
22543;SDS011;11438;52.044;8.716;2023-03-23T02:36:09;4.00;;;1.23;;
22543;SDS011;11438;52.044;8.716;2023-03-23T02:38:49;2.03;;;1.20;;
22543;SDS011;11438;52.044;8.716;2023-03-23T02:41:28;2.92;;;0.98;;
22543;SDS011;11438;52.044;8.716;2023-03-23T02:43:59;2.85;;;1.20;;
22543;SDS011;11438;52.044;8.716;2023-03-23T02:46:28;2.72;;;1.40;;
22543;SDS011;11438;52.044;8.716;2023-03-23T02:48:55;3.60;;;1.30;;
22543;SDS011;11438;52.044;8.716;2023-03-23T02:51:22;1.58;;;1.05;;
22543;SDS011;11438;52.044;8.716;2023-03-23T02:53:50;1.77;;;1.20;;
22543;SDS011;11438;52.044;8.716;2023-03-23T02:56:17;1.60;;;1.17;;
22543;SDS011;11438;52.044;8.716;2023-03-23T02:58:45;2.67;;;1.38;;
22543;SDS011;11438;52.044;8.716;2023-03-23T03:01:55;3.03;;;1.27;;
22543;SDS011;11438;52.044;8.716;2023-03-23T03:04:23;4.43;;;1.33;;
22543;SDS011;11438;52.044;8.716;2023-03-23T03:07:01;2.28;;;1.40;;
22543;SDS011;11438;52.044;8.716;2023-03-23T03:09:50;1.95;;;1.30;;
22543;SDS011;11438;52.044;8.716;2023-03-23T03:14:53;3.83;;;1.55;;
22543;SDS011;11438;52.044;8.716;2023-03-23T03:17:49;4.55;;;1.60;;
22543;SDS011;11438;52.044;8.716;2023-03-23T03:20:20;1.77;;;1.10;;
22543;SDS011;11438;52.044;8.716;2023-03-23T03:22:46;2.90;;;1.20;;
22543;SDS011;11438;52.044;8.716;2023-03-23T03:25:13;3.47;;;1.20;;
22543;SDS011;11438;52.044;8.716;2023-03-23T03:27:40;2.45;;;1.08;;
22543;SDS011;11438;52.044;8.716;2023-03-23T03:30:09;2.13;;;1.13;;
22543;SDS011;11438;52.044;8.716;2023-03-23T03:32:44;2.38;;;1.00;;
22543;SDS011;11438;52.044;8.716;2023-03-23T03:35:13;2.13;;;1.10;;
22543;SDS011;11438;52.044;8.716;2023-03-23T03:37:40;1.75;;;1.00;;
22543;SDS011;11438;52.044;8.716;2023-03-23T03:40:07;1.92;;;1.05;;
22543;SDS011;11438;52.044;8.716;2023-03-23T03:42:43;3.05;;;1.30;;
22543;SDS011;11438;52.044;8.716;2023-03-23T03:45:17;1.90;;;0.95;;
22543;SDS011;11438;52.044;8.716;2023-03-23T03:47:43;1.40;;;0.80;;
22543;SDS011;11438;52.044;8.716;2023-03-23T03:50:09;1.92;;;1.10;;
22543;SDS011;11438;52.044;8.716;2023-03-23T03:52:36;1.67;;;1.00;;
22543;SDS011;11438;52.044;8.716;2023-03-23T03:55:03;1.42;;;1.10;;
22543;SDS011;11438;52.044;8.716;2023-03-23T03:57:29;2.63;;;1.20;;
22543;SDS011;11438;52.044;8.716;2023-03-23T03:59:55;2.97;;;1.20;;
22543;SDS011;11438;52.044;8.716;2023-03-23T04:02:21;2.05;;;1.02;;
22543;SDS011;11438;52.044;8.716;2023-03-23T04:04:47;1.17;;;0.80;;
22543;SDS011;11438;52.044;8.716;2023-03-23T04:07:13;1.77;;;1.02;;
22543;SDS011;11438;52.044;8.716;2023-03-23T04:09:41;1.80;;;0.95;;
22543;SDS011;11438;52.044;8.716;2023-03-23T04:12:08;1.95;;;1.08;;
22543;SDS011;11438;52.044;8.716;2023-03-23T04:14:33;2.15;;;1.00;;
22543;SDS011;11438;52.044;8.716;2023-03-23T04:16:59;1.75;;;1.00;;
22543;SDS011;11438;52.044;8.716;2023-03-23T04:19:25;2.20;;;1.10;;
22543;SDS011;11438;52.044;8.716;2023-03-23T04:21:53;2.55;;;1.00;;
22543;SDS011;11438;52.044;8.716;2023-03-23T04:24:19;2.10;;;1.00;;
22543;SDS011;11438;52.044;8.716;2023-03-23T04:26:46;1.48;;;0.95;;
22543;SDS011;11438;52.044;8.716;2023-03-23T04:29:12;1.98;;;0.98;;
22543;SDS011;11438;52.044;8.716;2023-03-23T04:31:38;1.52;;;0.95;;
22543;SDS011;11438;52.044;8.716;2023-03-23T04:34:04;4.28;;;1.00;;
22543;SDS011;11438;52.044;8.716;2023-03-23T04:36:30;2.00;;;1.00;;
22543;SDS011;11438;52.044;8.716;2023-03-23T04:38:58;2.75;;;1.00;;
22543;SDS011;11438;52.044;8.716;2023-03-23T04:41:25;1.25;;;0.90;;
22543;SDS011;11438;52.044;8.716;2023-03-23T04:43:51;1.92;;;0.98;;
22543;SDS011;11438;52.044;8.716;2023-03-23T04:46:18;1.80;;;0.80;;
22543;SDS011;11438;52.044;8.716;2023-03-23T04:48:46;3.97;;;1.10;;
22543;SDS011;11438;52.044;8.716;2023-03-23T04:51:12;2.63;;;1.20;;
22543;SDS011;11438;52.044;8.716;2023-03-23T04:53:38;2.55;;;1.13;;
22543;SDS011;11438;52.044;8.716;2023-03-23T04:56:04;1.88;;;0.80;;
22543;SDS011;11438;52.044;8.716;2023-03-23T04:58:30;2.42;;;1.10;;
22543;SDS011;11438;52.044;8.716;2023-03-23T05:00:58;1.80;;;0.80;;
22543;SDS011;11438;52.044;8.716;2023-03-23T05:03:25;1.23;;;0.75;;
22543;SDS011;11438;52.044;8.716;2023-03-23T05:05:52;3.33;;;1.00;;
22543;SDS011;11438;52.044;8.716;2023-03-23T05:08:19;1.02;;;0.80;;
22543;SDS011;11438;52.044;8.716;2023-03-23T05:10:52;2.22;;;1.00;;
22543;SDS011;11438;52.044;8.716;2023-03-23T05:13:19;0.88;;;0.60;;
22543;SDS011;11438;52.044;8.716;2023-03-23T05:15:45;1.45;;;0.80;;
22543;SDS011;11438;52.044;8.716;2023-03-23T05:18:11;2.00;;;0.90;;
22543;SDS011;11438;52.044;8.716;2023-03-23T05:20:36;1.85;;;0.90;;
22543;SDS011;11438;52.044;8.716;2023-03-23T05:23:02;1.52;;;0.70;;
22543;SDS011;11438;52.044;8.716;2023-03-23T05:25:28;1.25;;;0.90;;
22543;SDS011;11438;52.044;8.716;2023-03-23T05:27:53;0.98;;;0.70;;
22543;SDS011;11438;52.044;8.716;2023-03-23T05:30:19;1.23;;;0.93;;
22543;SDS011;11438;52.044;8.716;2023-03-23T05:32:46;1.75;;;0.93;;
22543;SDS011;11438;52.044;8.716;2023-03-23T05:35:15;4.80;;;0.90;;
22543;SDS011;11438;52.044;8.716;2023-03-23T05:37:42;1.95;;;0.75;;
22543;SDS011;11438;52.044;8.716;2023-03-23T05:40:08;1.02;;;0.70;;
22543;SDS011;11438;52.044;8.716;2023-03-23T05:42:35;2.55;;;0.90;;
22543;SDS011;11438;52.044;8.716;2023-03-23T05:45:01;2.28;;;1.00;;
22543;SDS011;11438;52.044;8.716;2023-03-23T05:47:28;1.75;;;0.95;;
22543;SDS011;11438;52.044;8.716;2023-03-23T05:49:54;1.20;;;0.80;;
22543;SDS011;11438;52.044;8.716;2023-03-23T05:52:19;1.15;;;0.80;;
22543;SDS011;11438;52.044;8.716;2023-03-23T05:54:45;1.65;;;1.15;;
22543;SDS011;11438;52.044;8.716;2023-03-23T05:57:11;1.10;;;0.80;;
22543;SDS011;11438;52.044;8.716;2023-03-23T05:59:36;1.70;;;0.75;;
22543;SDS011;11438;52.044;8.716;2023-03-23T06:02:02;1.17;;;0.77;;
22543;SDS011;11438;52.044;8.716;2023-03-23T06:04:29;1.38;;;0.88;;
22543;SDS011;11438;52.044;8.716;2023-03-23T06:06:54;1.95;;;1.08;;
22543;SDS011;11438;52.044;8.716;2023-03-23T06:09:20;2.20;;;0.90;;
22543;SDS011;11438;52.044;8.716;2023-03-23T06:11:48;0.98;;;0.70;;
22543;SDS011;11438;52.044;8.716;2023-03-23T06:14:13;1.92;;;1.05;;
22543;SDS011;11438;52.044;8.716;2023-03-23T06:16:39;1.48;;;1.02;;
22543;SDS011;11438;52.044;8.716;2023-03-23T06:19:05;2.15;;;1.10;;
22543;SDS011;11438;52.044;8.716;2023-03-23T06:21:30;1.80;;;0.90;;
22543;SDS011;11438;52.044;8.716;2023-03-23T06:23:56;2.42;;;0.95;;
22543;SDS011;11438;52.044;8.716;2023-03-23T06:26:24;2.47;;;1.00;;
22543;SDS011;11438;52.044;8.716;2023-03-23T06:28:53;4.88;;;1.35;;
22543;SDS011;11438;52.044;8.716;2023-03-23T06:31:19;2.42;;;1.10;;
22543;SDS011;11438;52.044;8.716;2023-03-23T06:33:45;3.03;;;1.02;;
22543;SDS011;11438;52.044;8.716;2023-03-23T06:36:12;1.25;;;1.00;;
22543;SDS011;11438;52.044;8.716;2023-03-23T06:38:37;1.50;;;0.88;;
22543;SDS011;11438;52.044;8.716;2023-03-23T06:41:03;3.88;;;1.20;;
22543;SDS011;11438;52.044;8.716;2023-03-23T06:43:29;1.25;;;0.90;;
22543;SDS011;11438;52.044;8.716;2023-03-23T06:45:57;1.83;;;1.00;;
22543;SDS011;11438;52.044;8.716;2023-03-23T06:48:24;2.10;;;1.10;;
22543;SDS011;11438;52.044;8.716;2023-03-23T06:50:49;1.58;;;1.00;;
22543;SDS011;11438;52.044;8.716;2023-03-23T06:53:15;1.35;;;1.10;;
22543;SDS011;11438;52.044;8.716;2023-03-23T06:55:42;1.55;;;0.98;;
22543;SDS011;11438;52.044;8.716;2023-03-23T06:58:08;1.88;;;1.23;;
22543;SDS011;11438;52.044;8.716;2023-03-23T07:00:34;2.47;;;1.23;;
22543;SDS011;11438;52.044;8.716;2023-03-23T07:02:59;1.55;;;0.80;;
22543;SDS011;11438;52.044;8.716;2023-03-23T07:05:25;1.52;;;0.85;;
22543;SDS011;11438;52.044;8.716;2023-03-23T07:07:51;2.50;;;1.00;;
22543;SDS011;11438;52.044;8.716;2023-03-23T07:10:16;1.20;;;0.90;;
22543;SDS011;11438;52.044;8.716;2023-03-23T07:12:42;2.13;;;1.20;;
22543;SDS011;11438;52.044;8.716;2023-03-23T07:15:08;2.97;;;1.05;;
22543;SDS011;11438;52.044;8.716;2023-03-23T07:17:36;1.67;;;1.10;;
22543;SDS011;11438;52.044;8.716;2023-03-23T07:20:03;1.75;;;1.00;;
22543;SDS011;11438;52.044;8.716;2023-03-23T07:22:30;1.95;;;0.85;;
22543;SDS011;11438;52.044;8.716;2023-03-23T07:24:55;2.30;;;1.10;;
22543;SDS011;11438;52.044;8.716;2023-03-23T07:27:21;2.88;;;0.93;;
22543;SDS011;11438;52.044;8.716;2023-03-23T07:29:46;2.83;;;1.13;;
22543;SDS011;11438;52.044;8.716;2023-03-23T07:32:12;1.60;;;1.20;;
22543;SDS011;11438;52.044;8.716;2023-03-23T07:34:38;3.35;;;0.98;;
22543;SDS011;11438;52.044;8.716;2023-03-23T07:37:04;2.33;;;1.05;;
22543;SDS011;11438;52.044;8.716;2023-03-23T07:39:30;1.52;;;1.00;;
22543;SDS011;11438;52.044;8.716;2023-03-23T07:41:56;2.25;;;1.30;;
22543;SDS011;11438;52.044;8.716;2023-03-23T07:44:22;2.03;;;1.42;;
22543;SDS011;11438;52.044;8.716;2023-03-23T07:46:47;3.55;;;2.55;;
22543;SDS011;11438;52.044;8.716;2023-03-23T07:49:13;9.48;;;4.70;;
22543;SDS011;11438;52.044;8.716;2023-03-23T07:51:39;8.07;;;4.78;;
22543;SDS011;11438;52.044;8.716;2023-03-23T07:54:05;3.80;;;2.53;;
22543;SDS011;11438;52.044;8.716;2023-03-23T07:56:34;25.35;;;2.00;;
22543;SDS011;11438;52.044;8.716;2023-03-23T07:59:01;3.80;;;1.33;;
22543;SDS011;11438;52.044;8.716;2023-03-23T08:01:29;2.80;;;1.52;;
22543;SDS011;11438;52.044;8.716;2023-03-23T08:03:55;2.58;;;1.17;;
22543;SDS011;11438;52.044;8.716;2023-03-23T08:06:22;2.90;;;1.55;;
22543;SDS011;11438;52.044;8.716;2023-03-23T08:08:48;3.03;;;1.25;;
22543;SDS011;11438;52.044;8.716;2023-03-23T08:11:14;2.92;;;1.15;;
22543;SDS011;11438;52.044;8.716;2023-03-23T08:13:40;2.35;;;1.15;;
22543;SDS011;11438;52.044;8.716;2023-03-23T08:16:07;2.28;;;1.30;;
22543;SDS011;11438;52.044;8.716;2023-03-23T08:18:34;2.88;;;1.20;;
22543;SDS011;11438;52.044;8.716;2023-03-23T08:21:00;1.83;;;1.17;;
22543;SDS011;11438;52.044;8.716;2023-03-23T08:23:27;2.63;;;1.17;;
22543;SDS011;11438;52.044;8.716;2023-03-23T08:25:53;1.65;;;1.17;;
22543;SDS011;11438;52.044;8.716;2023-03-23T08:28:18;1.95;;;1.05;;
22543;SDS011;11438;52.044;8.716;2023-03-23T08:30:44;3.00;;;1.35;;
22543;SDS011;11438;52.044;8.716;2023-03-23T08:33:10;3.58;;;1.58;;
22543;SDS011;11438;52.044;8.716;2023-03-23T08:35:36;2.08;;;1.30;;
22543;SDS011;11438;52.044;8.716;2023-03-23T08:38:02;3.70;;;1.20;;
22543;SDS011;11438;52.044;8.716;2023-03-23T08:40:28;2.53;;;1.17;;
22543;SDS011;11438;52.044;8.716;2023-03-23T08:42:54;3.38;;;1.30;;
22543;SDS011;11438;52.044;8.716;2023-03-23T08:45:21;3.88;;;1.40;;
22543;SDS011;11438;52.044;8.716;2023-03-23T08:47:49;4.05;;;1.30;;
22543;SDS011;11438;52.044;8.716;2023-03-23T08:50:17;4.68;;;1.25;;
22543;SDS011;11438;52.044;8.716;2023-03-23T08:52:44;2.40;;;1.10;;
22543;SDS011;11438;52.044;8.716;2023-03-23T08:55:10;4.35;;;1.20;;
22543;SDS011;11438;52.044;8.716;2023-03-23T08:57:36;4.45;;;1.60;;
22543;SDS011;11438;52.044;8.716;2023-03-23T09:00:03;3.45;;;1.48;;
22543;SDS011;11438;52.044;8.716;2023-03-23T09:02:38;5.35;;;1.55;;
22543;SDS011;11438;52.044;8.716;2023-03-23T09:05:05;3.25;;;1.50;;
22543;SDS011;11438;52.044;8.716;2023-03-23T09:07:32;4.00;;;1.30;;
22543;SDS011;11438;52.044;8.716;2023-03-23T09:09:57;4.68;;;1.55;;
22543;SDS011;11438;52.044;8.716;2023-03-23T09:12:23;3.17;;;1.65;;
22543;SDS011;11438;52.044;8.716;2023-03-23T09:14:48;4.00;;;1.73;;
22543;SDS011;11438;52.044;8.716;2023-03-23T09:17:14;5.40;;;1.60;;
22543;SDS011;11438;52.044;8.716;2023-03-23T09:19:40;2.97;;;1.38;;
22543;SDS011;11438;52.044;8.716;2023-03-23T09:22:06;4.72;;;1.63;;
22543;SDS011;11438;52.044;8.716;2023-03-23T09:24:32;6.75;;;1.58;;
22543;SDS011;11438;52.044;8.716;2023-03-23T09:26:58;4.63;;;1.30;;
22543;SDS011;11438;52.044;8.716;2023-03-23T09:29:24;4.95;;;1.33;;
22543;SDS011;11438;52.044;8.716;2023-03-23T09:31:52;3.45;;;1.23;;
22543;SDS011;11438;52.044;8.716;2023-03-23T09:34:21;6.03;;;1.40;;
22543;SDS011;11438;52.044;8.716;2023-03-23T09:36:47;5.47;;;1.50;;
22543;SDS011;11438;52.044;8.716;2023-03-23T09:39:13;6.32;;;1.50;;
22543;SDS011;11438;52.044;8.716;2023-03-23T09:46:58;5.13;;;1.60;;
22543;SDS011;11438;52.044;8.716;2023-03-23T09:49:34;5.47;;;1.60;;
22543;SDS011;11438;52.044;8.716;2023-03-23T09:52:15;3.88;;;1.30;;
22543;SDS011;11438;52.044;8.716;2023-03-23T09:54:49;3.63;;;1.40;;
22543;SDS011;11438;52.044;8.716;2023-03-23T09:57:24;3.50;;;1.08;;
22543;SDS011;11438;52.044;8.716;2023-03-23T09:59:59;2.65;;;1.17;;
22543;SDS011;11438;52.044;8.716;2023-03-23T10:05:22;3.83;;;1.42;;
22543;SDS011;11438;52.044;8.716;2023-03-23T10:07:51;3.80;;;1.25;;
22543;SDS011;11438;52.044;8.716;2023-03-23T10:10:16;5.65;;;1.17;;
22543;SDS011;11438;52.044;8.716;2023-03-23T10:12:46;3.42;;;1.40;;
22543;SDS011;11438;52.044;8.716;2023-03-23T10:15:27;4.35;;;1.30;;
22543;SDS011;11438;52.044;8.716;2023-03-23T10:18:01;3.47;;;1.20;;
22543;SDS011;11438;52.044;8.716;2023-03-23T10:20:48;2.83;;;1.20;;
22543;SDS011;11438;52.044;8.716;2023-03-23T10:23:36;4.65;;;1.48;;
22543;SDS011;11438;52.044;8.716;2023-03-23T10:26:16;3.00;;;1.10;;
22543;SDS011;11438;52.044;8.716;2023-03-23T10:28:54;4.00;;;1.45;;
22543;SDS011;11438;52.044;8.716;2023-03-23T10:31:24;4.60;;;1.60;;
22543;SDS011;11438;52.044;8.716;2023-03-23T10:33:56;4.40;;;1.33;;
22543;SDS011;11438;52.044;8.716;2023-03-23T10:36:37;4.35;;;1.23;;
22543;SDS011;11438;52.044;8.716;2023-03-23T10:39:14;3.13;;;1.20;;
22543;SDS011;11438;52.044;8.716;2023-03-23T10:41:44;5.28;;;1.52;;
22543;SDS011;11438;52.044;8.716;2023-03-23T10:44:30;4.60;;;1.33;;
22543;SDS011;11438;52.044;8.716;2023-03-23T10:46:58;5.32;;;1.25;;
22543;SDS011;11438;52.044;8.716;2023-03-23T10:49:49;5.57;;;1.27;;
22543;SDS011;11438;52.044;8.716;2023-03-23T10:52:26;3.88;;;1.27;;
22543;SDS011;11438;52.044;8.716;2023-03-23T10:55:10;4.55;;;1.20;;
22543;SDS011;11438;52.044;8.716;2023-03-23T10:57:38;3.50;;;1.40;;
22543;SDS011;11438;52.044;8.716;2023-03-23T11:00:14;4.93;;;1.55;;
22543;SDS011;11438;52.044;8.716;2023-03-23T11:02:47;3.88;;;1.50;;
22543;SDS011;11438;52.044;8.716;2023-03-23T11:05:24;6.10;;;1.67;;
22543;SDS011;11438;52.044;8.716;2023-03-23T11:07:54;4.20;;;1.38;;
22543;SDS011;11438;52.044;8.716;2023-03-23T11:10:25;3.50;;;1.73;;
22543;SDS011;11438;52.044;8.716;2023-03-23T11:12:56;1.38;;;0.50;;
22543;SDS011;11438;52.044;8.716;2023-03-23T11:15:30;1.40;;;0.50;;
22543;SDS011;11438;52.044;8.716;2023-03-23T11:18:03;0.60;;;0.20;;
22543;SDS011;11438;52.044;8.716;2023-03-23T11:20:35;0.98;;;0.25;;
22543;SDS011;11438;52.044;8.716;2023-03-23T11:23:10;0.93;;;0.30;;
22543;SDS011;11438;52.044;8.716;2023-03-23T11:25:55;0.77;;;0.20;;
22543;SDS011;11438;52.044;8.716;2023-03-23T11:28:28;1.40;;;0.35;;
22543;SDS011;11438;52.044;8.716;2023-03-23T11:30:57;1.17;;;0.30;;
22543;SDS011;11438;52.044;8.716;2023-03-23T11:33:24;0.60;;;0.20;;
22543;SDS011;11438;52.044;8.716;2023-03-23T11:35:50;1.77;;;0.47;;
22543;SDS011;11438;52.044;8.716;2023-03-23T11:38:18;0.45;;;0.20;;
22543;SDS011;11438;52.044;8.716;2023-03-23T11:40:51;1.63;;;0.40;;
22543;SDS011;11438;52.044;8.716;2023-03-23T11:43:19;0.63;;;0.30;;
22543;SDS011;11438;52.044;8.716;2023-03-23T11:45:50;1.52;;;0.40;;
22543;SDS011;11438;52.044;8.716;2023-03-23T11:53:43;2.00;;;0.38;;
22543;SDS011;11438;52.044;8.716;2023-03-23T11:58:53;1.25;;;0.30;;
22543;SDS011;11438;52.044;8.716;2023-03-23T12:01:38;1.60;;;0.47;;
22543;SDS011;11438;52.044;8.716;2023-03-23T12:04:30;2.97;;;0.40;;
22543;SDS011;11438;52.044;8.716;2023-03-23T12:07:20;0.55;;;0.32;;
22543;SDS011;11438;52.044;8.716;2023-03-23T12:12:59;1.27;;;0.43;;
22543;SDS011;11438;52.044;8.716;2023-03-23T12:15:47;0.73;;;0.40;;
22543;SDS011;11438;52.044;8.716;2023-03-23T12:29:47;3.20;;;0.73;;
22543;SDS011;11438;52.044;8.716;2023-03-23T12:40:56;2.20;;;0.63;;
22543;SDS011;11438;52.044;8.716;2023-03-23T12:43:39;1.85;;;0.52;;
22543;SDS011;11438;52.044;8.716;2023-03-23T12:46:24;3.45;;;0.40;;
22543;SDS011;11438;52.044;8.716;2023-03-23T12:51:33;1.55;;;0.50;;
22543;SDS011;11438;52.044;8.716;2023-03-23T12:56:38;2.75;;;0.52;;
22543;SDS011;11438;52.044;8.716;2023-03-23T13:02:22;2.10;;;0.70;;
22543;SDS011;11438;52.044;8.716;2023-03-23T13:04:55;3.28;;;0.47;;
22543;SDS011;11438;52.044;8.716;2023-03-23T13:07:35;1.10;;;0.60;;
22543;SDS011;11438;52.044;8.716;2023-03-23T13:10:21;0.68;;;0.35;;
22543;SDS011;11438;52.044;8.716;2023-03-23T13:12:49;1.73;;;0.50;;
22543;SDS011;11438;52.044;8.716;2023-03-23T13:15:32;1.40;;;0.50;;
22543;SDS011;11438;52.044;8.716;2023-03-23T13:18:11;3.15;;;0.52;;
22543;SDS011;11438;52.044;8.716;2023-03-23T13:20:55;1.42;;;0.40;;
22543;SDS011;11438;52.044;8.716;2023-03-23T13:23:46;1.95;;;0.60;;
22543;SDS011;11438;52.044;8.716;2023-03-23T13:26:18;0.93;;;0.30;;
22543;SDS011;11438;52.044;8.716;2023-03-23T13:31:33;1.63;;;0.60;;
22543;SDS011;11438;52.044;8.716;2023-03-23T13:34:21;0.80;;;0.32;;
22543;SDS011;11438;52.044;8.716;2023-03-23T13:36:52;1.00;;;0.50;;
22543;SDS011;11438;52.044;8.716;2023-03-23T13:39:31;1.58;;;0.80;;
22543;SDS011;11438;52.044;8.716;2023-03-23T13:44:41;3.25;;;0.90;;
22543;SDS011;11438;52.044;8.716;2023-03-23T13:47:28;1.00;;;0.60;;
22543;SDS011;11438;52.044;8.716;2023-03-23T13:50:01;2.28;;;0.55;;
22543;SDS011;11438;52.044;8.716;2023-03-23T13:53:12;1.98;;;0.60;;
22543;SDS011;11438;52.044;8.716;2023-03-23T13:55:19;1.00;;;0.50;;
22543;SDS011;11438;52.044;8.716;2023-03-23T14:03:04;0.90;;;0.45;;
22543;SDS011;11438;52.044;8.716;2023-03-23T14:11:09;1.42;;;0.70;;
22543;SDS011;11438;52.044;8.716;2023-03-23T14:13:43;1.33;;;0.70;;
22543;SDS011;11438;52.044;8.716;2023-03-23T14:18:52;2.20;;;0.80;;
22543;SDS011;11438;52.044;8.716;2023-03-23T14:21:36;1.60;;;0.80;;
22543;SDS011;11438;52.044;8.716;2023-03-23T14:24:12;1.38;;;0.60;;
22543;SDS011;11438;52.044;8.716;2023-03-23T14:26:41;3.55;;;0.90;;
22543;SDS011;11438;52.044;8.716;2023-03-23T14:29:09;1.10;;;0.75;;
22543;SDS011;11438;52.044;8.716;2023-03-23T14:31:37;1.15;;;0.75;;
22543;SDS011;11438;52.044;8.716;2023-03-23T14:34:12;1.02;;;0.73;;
22543;SDS011;11438;52.044;8.716;2023-03-23T14:36:44;1.55;;;0.80;;
22543;SDS011;11438;52.044;8.716;2023-03-23T14:41:44;1.25;;;0.80;;
22543;SDS011;11438;52.044;8.716;2023-03-23T14:44:13;2.22;;;0.80;;
22543;SDS011;11438;52.044;8.716;2023-03-23T14:46:42;1.70;;;0.80;;
22543;SDS011;11438;52.044;8.716;2023-03-23T14:49:12;2.08;;;0.90;;
22543;SDS011;11438;52.044;8.716;2023-03-23T14:51:51;3.05;;;1.30;;
22543;SDS011;11438;52.044;8.716;2023-03-23T14:54:21;2.20;;;0.90;;
22543;SDS011;11438;52.044;8.716;2023-03-23T14:56:50;2.17;;;0.93;;
22543;SDS011;11438;52.044;8.716;2023-03-23T14:59:16;1.50;;;1.05;;
22543;SDS011;11438;52.044;8.716;2023-03-23T15:01:41;1.13;;;1.00;;
22543;SDS011;11438;52.044;8.716;2023-03-23T15:04:10;2.67;;;1.10;;
22543;SDS011;11438;52.044;8.716;2023-03-23T15:06:52;2.83;;;1.45;;
22543;SDS011;11438;52.044;8.716;2023-03-23T15:09:21;1.80;;;1.02;;
22543;SDS011;11438;52.044;8.716;2023-03-23T15:11:52;1.85;;;1.05;;
22543;SDS011;11438;52.044;8.716;2023-03-23T15:14:21;2.22;;;1.30;;
22543;SDS011;11438;52.044;8.716;2023-03-23T15:16:50;1.67;;;1.10;;
22543;SDS011;11438;52.044;8.716;2023-03-23T15:19:24;1.58;;;1.15;;
22543;SDS011;11438;52.044;8.716;2023-03-23T15:24:48;2.03;;;0.95;;
22543;SDS011;11438;52.044;8.716;2023-03-23T15:27:23;1.58;;;1.00;;
22543;SDS011;11438;52.044;8.716;2023-03-23T15:29:56;1.92;;;1.02;;
22543;SDS011;11438;52.044;8.716;2023-03-23T15:32:45;1.83;;;1.20;;
22543;SDS011;11438;52.044;8.716;2023-03-23T15:35:17;1.38;;;1.15;;
22543;SDS011;11438;52.044;8.716;2023-03-23T15:37:44;2.90;;;1.02;;
22543;SDS011;11438;52.044;8.716;2023-03-23T15:40:21;1.90;;;1.20;;
22543;SDS011;11438;52.044;8.716;2023-03-23T15:42:48;2.67;;;1.10;;
22543;SDS011;11438;52.044;8.716;2023-03-23T15:45:26;2.35;;;1.20;;
22543;SDS011;11438;52.044;8.716;2023-03-23T15:47:52;3.53;;;1.20;;
22543;SDS011;11438;52.044;8.716;2023-03-23T15:50:20;4.18;;;1.30;;
22543;SDS011;11438;52.044;8.716;2023-03-23T15:52:58;2.15;;;1.20;;
22543;SDS011;11438;52.044;8.716;2023-03-23T15:55:26;2.78;;;1.20;;
22543;SDS011;11438;52.044;8.716;2023-03-23T15:57:53;2.00;;;1.23;;
22543;SDS011;11438;52.044;8.716;2023-03-23T16:00:21;2.25;;;1.20;;
22543;SDS011;11438;52.044;8.716;2023-03-23T16:02:51;3.85;;;1.38;;
22543;SDS011;11438;52.044;8.716;2023-03-23T16:05:24;2.17;;;1.25;;
22543;SDS011;11438;52.044;8.716;2023-03-23T16:07:51;4.03;;;1.50;;
22543;SDS011;11438;52.044;8.716;2023-03-23T16:10:18;2.28;;;1.17;;
22543;SDS011;11438;52.044;8.716;2023-03-23T16:12:46;3.22;;;1.60;;
22543;SDS011;11438;52.044;8.716;2023-03-23T16:15:12;2.83;;;1.30;;
22543;SDS011;11438;52.044;8.716;2023-03-23T16:17:38;3.50;;;1.70;;
22543;SDS011;11438;52.044;8.716;2023-03-23T16:20:11;2.67;;;1.50;;
22543;SDS011;11438;52.044;8.716;2023-03-23T16:22:41;2.78;;;1.50;;
22543;SDS011;11438;52.044;8.716;2023-03-23T16:25:07;1.70;;;1.30;;
22543;SDS011;11438;52.044;8.716;2023-03-23T16:27:33;3.10;;;1.40;;
22543;SDS011;11438;52.044;8.716;2023-03-23T16:29:59;2.90;;;1.50;;